sensor_id;sensor_type;location;lat;lon;timestamp;pressure;altitude;pressure_sealevel;temperature;humidity
69239;BME280;56349;51.816;-0.026;2023-01-19T00:00:56;99909.69;;;22.13;28.26
69239;BME280;56349;51.816;-0.026;2023-01-19T00:03:23;99909.76;;;22.09;28.47
69239;BME280;56349;51.816;-0.026;2023-01-19T00:05:48;99911.09;;;21.85;28.68
69239;BME280;56349;51.816;-0.026;2023-01-19T00:08:13;99911.05;;;21.60;28.91
69239;BME280;56349;51.816;-0.026;2023-01-19T00:10:38;99908.64;;;21.61;29.14
69239;BME280;56349;51.816;-0.026;2023-01-19T00:13:04;99905.60;;;21.58;29.36
69239;BME280;56349;51.816;-0.026;2023-01-19T00:15:30;99911.20;;;21.14;29.58
69239;BME280;56349;51.816;-0.026;2023-01-19T00:17:56;99912.11;;;21.14;29.79
69239;BME280;56349;51.816;-0.026;2023-01-19T00:20:22;99916.16;;;21.18;29.99
69239;BME280;56349;51.816;-0.026;2023-01-19T00:22:49;99919.03;;;20.98;30.16
69239;BME280;56349;51.816;-0.026;2023-01-19T00:25:14;99916.12;;;20.59;30.35
69239;BME280;56349;51.816;-0.026;2023-01-19T00:27:39;99912.74;;;20.64;30.51
69239;BME280;56349;51.816;-0.026;2023-01-19T00:30:06;99910.33;;;20.74;30.68
69239;BME280;56349;51.816;-0.026;2023-01-19T00:32:30;99909.95;;;20.58;30.86
69239;BME280;56349;51.816;-0.026;2023-01-19T00:34:56;99909.64;;;20.43;31.01
69239;BME280;56349;51.816;-0.026;2023-01-19T00:37:21;99913.33;;;20.30;31.14
69239;BME280;56349;51.816;-0.026;2023-01-19T00:39:46;99910.10;;;20.16;31.29
69239;BME280;56349;51.816;-0.026;2023-01-19T00:42:12;99909.67;;;20.03;31.43
69239;BME280;56349;51.816;-0.026;2023-01-19T00:44:38;99908.80;;;19.90;31.58
69239;BME280;56349;51.816;-0.026;2023-01-19T00:47:04;99909.94;;;19.81;31.69
69239;BME280;56349;51.816;-0.026;2023-01-19T00:49:30;99911.88;;;19.69;31.79
69239;BME280;56349;51.816;-0.026;2023-01-19T00:51:56;99915.87;;;20.03;31.88
69239;BME280;56349;51.816;-0.026;2023-01-19T00:54:20;99924.27;;;19.95;31.99
69239;BME280;56349;51.816;-0.026;2023-01-19T00:56:47;99923.26;;;19.84;32.09
69239;BME280;56349;51.816;-0.026;2023-01-19T00:59:12;99924.81;;;19.75;32.19
69239;BME280;56349;51.816;-0.026;2023-01-19T01:01:37;99927.71;;;19.43;32.30
69239;BME280;56349;51.816;-0.026;2023-01-19T01:04:03;99926.28;;;19.36;32.37
69239;BME280;56349;51.816;-0.026;2023-01-19T01:06:28;99924.45;;;19.53;32.44
69239;BME280;56349;51.816;-0.026;2023-01-19T01:08:54;99925.89;;;19.46;32.51
69239;BME280;56349;51.816;-0.026;2023-01-19T01:11:19;99927.73;;;19.14;32.59
69239;BME280;56349;51.816;-0.026;2023-01-19T01:13:45;99934.43;;;19.29;32.68
69239;BME280;56349;51.816;-0.026;2023-01-19T01:16:14;99935.80;;;19.48;32.76
69239;BME280;56349;51.816;-0.026;2023-01-19T01:18:37;99938.52;;;19.37;32.87
69239;BME280;56349;51.816;-0.026;2023-01-19T01:21:05;99939.98;;;19.03;32.95
69239;BME280;56349;51.816;-0.026;2023-01-19T01:23:29;99940.81;;;19.22;33.02
69239;BME280;56349;51.816;-0.026;2023-01-19T01:25:54;99944.23;;;18.87;33.10
69239;BME280;56349;51.816;-0.026;2023-01-19T01:28:21;99949.36;;;19.27;33.19
69239;BME280;56349;51.816;-0.026;2023-01-19T01:30:47;99949.15;;;18.96;33.26
69239;BME280;56349;51.816;-0.026;2023-01-19T01:33:12;99950.35;;;18.63;33.31
69239;BME280;56349;51.816;-0.026;2023-01-19T01:35:38;99952.12;;;18.58;33.38
69239;BME280;56349;51.816;-0.026;2023-01-19T01:38:04;99950.24;;;18.51;33.43
69239;BME280;56349;51.816;-0.026;2023-01-19T01:40:30;99954.39;;;18.69;33.52
69239;BME280;56349;51.816;-0.026;2023-01-19T01:42:56;99953.77;;;18.63;33.59
69239;BME280;56349;51.816;-0.026;2023-01-19T01:45:28;99953.70;;;18.80;33.64
69239;BME280;56349;51.816;-0.026;2023-01-19T01:47:49;99957.27;;;18.53;33.68
69239;BME280;56349;51.816;-0.026;2023-01-19T01:50:16;99962.07;;;18.72;33.70
69239;BME280;56349;51.816;-0.026;2023-01-19T01:52:46;99963.00;;;18.67;33.77
69239;BME280;56349;51.816;-0.026;2023-01-19T01:55:06;99962.82;;;18.40;33.80
69239;BME280;56349;51.816;-0.026;2023-01-19T01:57:33;99966.34;;;18.08;33.85
69239;BME280;56349;51.816;-0.026;2023-01-19T01:59:57;99966.74;;;18.51;33.90
69239;BME280;56349;51.816;-0.026;2023-01-19T02:02:24;99967.66;;;18.25;33.93
69239;BME280;56349;51.816;-0.026;2023-01-19T02:04:51;99963.67;;;18.43;33.97
69239;BME280;56349;51.816;-0.026;2023-01-19T02:07:20;99962.26;;;18.37;34.02
69239;BME280;56349;51.816;-0.026;2023-01-19T02:09:40;99959.37;;;18.31;34.08
69239;BME280;56349;51.816;-0.026;2023-01-19T02:12:06;99958.01;;;18.02;34.13
69239;BME280;56349;51.816;-0.026;2023-01-19T02:14:32;99950.53;;;18.21;34.16
69239;BME280;56349;51.816;-0.026;2023-01-19T02:16:57;99951.54;;;18.20;34.17
69239;BME280;56349;51.816;-0.026;2023-01-19T02:19:25;99951.02;;;18.17;34.18
69239;BME280;56349;51.816;-0.026;2023-01-19T02:21:53;99952.77;;;18.11;34.22
69239;BME280;56349;51.816;-0.026;2023-01-19T02:24:13;99953.46;;;18.05;34.27
69239;BME280;56349;51.816;-0.026;2023-01-19T02:26:40;99955.33;;;17.99;34.32
69239;BME280;56349;51.816;-0.026;2023-01-19T02:29:07;99953.75;;;17.96;34.34
69239;BME280;56349;51.816;-0.026;2023-01-19T02:31:31;99953.68;;;17.94;34.34
69239;BME280;56349;51.816;-0.026;2023-01-19T02:33:55;99952.21;;;17.92;34.36
69239;BME280;56349;51.816;-0.026;2023-01-19T02:36:23;99954.66;;;17.90;34.36
69239;BME280;56349;51.816;-0.026;2023-01-19T02:38:46;99951.88;;;17.88;34.37
69239;BME280;56349;51.816;-0.026;2023-01-19T02:41:15;99952.92;;;17.84;34.38
69239;BME280;56349;51.816;-0.026;2023-01-19T02:43:39;99954.60;;;17.80;34.43
69239;BME280;56349;51.816;-0.026;2023-01-19T02:46:04;99957.81;;;17.77;34.43
69239;BME280;56349;51.816;-0.026;2023-01-19T02:48:29;99957.25;;;17.75;34.42
69239;BME280;56349;51.816;-0.026;2023-01-19T02:50:57;99955.43;;;17.71;34.46
69239;BME280;56349;51.816;-0.026;2023-01-19T02:55:51;99955.29;;;17.65;34.48
69239;BME280;56349;51.816;-0.026;2023-01-19T02:58:19;99961.71;;;17.64;34.49
69239;BME280;56349;51.816;-0.026;2023-01-19T03:00:44;99965.34;;;17.89;34.47
69239;BME280;56349;51.816;-0.026;2023-01-19T03:03:15;99965.94;;;17.56;34.50
69239;BME280;56349;51.816;-0.026;2023-01-19T03:05:37;99968.35;;;17.77;34.54
69239;BME280;56349;51.816;-0.026;2023-01-19T03:08:01;99970.05;;;17.72;34.58
69239;BME280;56349;51.816;-0.026;2023-01-19T03:10:29;99967.43;;;17.69;34.61
69239;BME280;56349;51.816;-0.026;2023-01-19T03:12:48;99967.49;;;17.64;34.63
69239;BME280;56349;51.816;-0.026;2023-01-19T03:15:18;99967.64;;;17.62;34.64
69239;BME280;56349;51.816;-0.026;2023-01-19T03:17:37;99970.84;;;17.58;34.65
69239;BME280;56349;51.816;-0.026;2023-01-19T03:20:05;99971.74;;;17.29;34.66
69239;BME280;56349;51.816;-0.026;2023-01-19T03:22:28;99971.52;;;17.53;34.68
69239;BME280;56349;51.816;-0.026;2023-01-19T03:24:57;99971.62;;;17.53;34.67
69239;BME280;56349;51.816;-0.026;2023-01-19T03:27:23;99969.36;;;17.23;34.68
69239;BME280;56349;51.816;-0.026;2023-01-19T03:29:49;99969.03;;;17.19;34.70
69239;BME280;56349;51.816;-0.026;2023-01-19T03:32:14;99967.37;;;17.63;34.71
69239;BME280;56349;51.816;-0.026;2023-01-19T03:34:38;99965.06;;;17.09;34.75
69239;BME280;56349;51.816;-0.026;2023-01-19T03:37:04;99964.67;;;17.53;34.79
69239;BME280;56349;51.816;-0.026;2023-01-19T03:39:29;99965.52;;;17.31;34.77
69239;BME280;56349;51.816;-0.026;2023-01-19T03:41:58;99961.77;;;17.53;34.75
69239;BME280;56349;51.816;-0.026;2023-01-19T03:44:21;99963.90;;;17.49;34.75
69239;BME280;56349;51.816;-0.026;2023-01-19T03:46:46;99963.20;;;17.47;34.77
69239;BME280;56349;51.816;-0.026;2023-01-19T03:49:12;99964.68;;;16.94;34.79
69239;BME280;56349;51.816;-0.026;2023-01-19T03:51:37;99968.63;;;17.38;34.81
69239;BME280;56349;51.816;-0.026;2023-01-19T03:54:03;99972.59;;;17.34;34.84
69239;BME280;56349;51.816;-0.026;2023-01-19T03:56:28;99978.58;;;17.09;34.85
69239;BME280;56349;51.816;-0.026;2023-01-19T03:58:53;99977.89;;;17.08;34.85
69239;BME280;56349;51.816;-0.026;2023-01-19T04:01:19;99979.61;;;17.07;34.83
69239;BME280;56349;51.816;-0.026;2023-01-19T04:03:44;99976.63;;;16.79;34.83
69239;BME280;56349;51.816;-0.026;2023-01-19T04:06:10;99977.07;;;17.03;34.84
69239;BME280;56349;51.816;-0.026;2023-01-19T04:08:35;99980.06;;;17.24;34.84
69239;BME280;56349;51.816;-0.026;2023-01-19T04:11:01;99981.71;;;17.22;34.83
69239;BME280;56349;51.816;-0.026;2023-01-19T04:13:26;99980.63;;;17.20;34.84
69239;BME280;56349;51.816;-0.026;2023-01-19T04:15:51;99981.07;;;16.95;34.85
69239;BME280;56349;51.816;-0.026;2023-01-19T04:18:17;99979.92;;;17.15;34.84
69239;BME280;56349;51.816;-0.026;2023-01-19T04:20:42;99977.49;;;17.10;34.85
69239;BME280;56349;51.816;-0.026;2023-01-19T04:23:07;99974.90;;;16.85;34.86
69239;BME280;56349;51.816;-0.026;2023-01-19T04:25:33;99974.76;;;17.05;34.86
69239;BME280;56349;51.816;-0.026;2023-01-19T04:28:00;99972.49;;;17.23;34.89
69239;BME280;56349;51.816;-0.026;2023-01-19T04:30:26;99973.70;;;16.76;34.91
69239;BME280;56349;51.816;-0.026;2023-01-19T04:32:51;99973.12;;;16.74;34.97
69239;BME280;56349;51.816;-0.026;2023-01-19T04:35:17;99976.18;;;16.97;35.01
69239;BME280;56349;51.816;-0.026;2023-01-19T04:37:43;99978.26;;;16.80;35.05
69239;BME280;56349;51.816;-0.026;2023-01-19T04:40:10;99979.81;;;17.13;35.03
69239;BME280;56349;51.816;-0.026;2023-01-19T04:42:35;99981.50;;;16.77;34.97
69239;BME280;56349;51.816;-0.026;2023-01-19T04:45:01;99978.46;;;16.93;34.87
69239;BME280;56349;51.816;-0.026;2023-01-19T04:47:27;99978.15;;;17.12;34.72
69239;BME280;56349;51.816;-0.026;2023-01-19T04:49:53;99977.08;;;17.33;34.51
69239;BME280;56349;51.816;-0.026;2023-01-19T04:52:19;99975.42;;;17.53;34.24
69239;BME280;56349;51.816;-0.026;2023-01-19T04:54:45;99977.57;;;17.70;33.97
69239;BME280;56349;51.816;-0.026;2023-01-19T04:57:11;99977.85;;;17.81;33.74
69239;BME280;56349;51.816;-0.026;2023-01-19T04:59:37;99976.75;;;17.66;33.53
69239;BME280;56349;51.816;-0.026;2023-01-19T05:02:03;99973.59;;;17.68;33.39
69239;BME280;56349;51.816;-0.026;2023-01-19T05:04:29;99972.12;;;17.88;33.31
69239;BME280;56349;51.816;-0.026;2023-01-19T05:06:55;99974.66;;;17.85;33.29
69239;BME280;56349;51.816;-0.026;2023-01-19T05:09:21;99975.04;;;17.82;33.31
69239;BME280;56349;51.816;-0.026;2023-01-19T05:11:46;99975.16;;;17.75;33.40
69239;BME280;56349;51.816;-0.026;2023-01-19T05:14:12;99971.62;;;17.69;33.53
69239;BME280;56349;51.816;-0.026;2023-01-19T05:16:37;99971.94;;;17.64;33.68
69239;BME280;56349;51.816;-0.026;2023-01-19T05:19:03;99975.20;;;17.87;33.82
69239;BME280;56349;51.816;-0.026;2023-01-19T05:21:29;99977.17;;;17.54;34.01
69239;BME280;56349;51.816;-0.026;2023-01-19T05:23:55;99976.38;;;17.50;34.18
69239;BME280;56349;51.816;-0.026;2023-01-19T05:26:21;99977.57;;;17.94;34.37
69239;BME280;56349;51.816;-0.026;2023-01-19T05:28:47;99975.89;;;17.43;34.54
69239;BME280;56349;51.816;-0.026;2023-01-19T05:31:13;99973.98;;;17.69;34.71
69239;BME280;56349;51.816;-0.026;2023-01-19T05:33:39;99972.41;;;17.69;34.87
69239;BME280;56349;51.816;-0.026;2023-01-19T05:36:05;99977.42;;;17.44;35.02
69239;BME280;56349;51.816;-0.026;2023-01-19T05:38:30;99976.29;;;17.45;35.14
69239;BME280;56349;51.816;-0.026;2023-01-19T05:40:57;99970.93;;;17.44;35.30
69239;BME280;56349;51.816;-0.026;2023-01-19T05:43:22;99974.58;;;17.45;35.44
69239;BME280;56349;51.816;-0.026;2023-01-19T05:45:47;99973.38;;;17.73;35.54
69239;BME280;56349;51.816;-0.026;2023-01-19T05:48:13;99974.62;;;17.49;35.62
69239;BME280;56349;51.816;-0.026;2023-01-19T05:50:38;99975.17;;;17.99;35.72
69239;BME280;56349;51.816;-0.026;2023-01-19T05:53:04;99978.71;;;17.54;35.78
69239;BME280;56349;51.816;-0.026;2023-01-19T05:55:30;99978.63;;;18.09;35.82
69239;BME280;56349;51.816;-0.026;2023-01-19T05:57:56;99979.60;;;17.63;35.86
69239;BME280;56349;51.816;-0.026;2023-01-19T06:00:22;99980.25;;;17.94;35.91
69239;BME280;56349;51.816;-0.026;2023-01-19T06:02:47;99977.81;;;17.73;35.95
69239;BME280;56349;51.816;-0.026;2023-01-19T06:05:12;99979.09;;;17.77;35.98
69239;BME280;56349;51.816;-0.026;2023-01-19T06:07:37;99975.26;;;17.80;36.01
69239;BME280;56349;51.816;-0.026;2023-01-19T06:10:04;99974.34;;;17.85;36.03
69239;BME280;56349;51.816;-0.026;2023-01-19T06:12:29;99969.51;;;17.89;36.06
69239;BME280;56349;51.816;-0.026;2023-01-19T06:14:54;99967.15;;;17.94;36.03
69239;BME280;56349;51.816;-0.026;2023-01-19T06:17:20;99966.75;;;18.00;36.06
69239;BME280;56349;51.816;-0.026;2023-01-19T06:19:44;99967.39;;;18.05;36.06
69239;BME280;56349;51.816;-0.026;2023-01-19T06:22:11;99968.40;;;18.09;36.08
69239;BME280;56349;51.816;-0.026;2023-01-19T06:24:37;99966.51;;;18.13;36.08
69239;BME280;56349;51.816;-0.026;2023-01-19T06:27:02;99967.82;;;18.20;36.06
69239;BME280;56349;51.816;-0.026;2023-01-19T06:29:27;99968.67;;;18.24;36.01
69239;BME280;56349;51.816;-0.026;2023-01-19T06:31:53;99964.53;;;18.29;35.91
69239;BME280;56349;51.816;-0.026;2023-01-19T06:34:20;99963.55;;;18.10;35.82
69239;BME280;56349;51.816;-0.026;2023-01-19T06:36:45;99962.05;;;18.37;35.70
69239;BME280;56349;51.816;-0.026;2023-01-19T06:39:11;99963.29;;;18.43;35.56
69239;BME280;56349;51.816;-0.026;2023-01-19T06:41:37;99961.95;;;18.21;35.47
69239;BME280;56349;51.816;-0.026;2023-01-19T06:44:02;99961.08;;;18.45;35.36
69239;BME280;56349;51.816;-0.026;2023-01-19T06:46:29;99959.94;;;18.23;35.27
69239;BME280;56349;51.816;-0.026;2023-01-19T06:48:53;99963.72;;;18.23;35.15
69239;BME280;56349;51.816;-0.026;2023-01-19T06:51:18;99966.50;;;18.23;35.08
69239;BME280;56349;51.816;-0.026;2023-01-19T06:53:44;99970.18;;;18.46;34.97
69239;BME280;56349;51.816;-0.026;2023-01-19T06:56:09;99976.20;;;18.48;34.86
69239;BME280;56349;51.816;-0.026;2023-01-19T06:58:34;99980.67;;;17.98;34.78
69239;BME280;56349;51.816;-0.026;2023-01-19T07:01:00;99980.84;;;18.23;34.72
69239;BME280;56349;51.816;-0.026;2023-01-19T07:03:26;99983.88;;;18.42;34.66
69239;BME280;56349;51.816;-0.026;2023-01-19T07:05:52;99990.02;;;18.39;34.61
69239;BME280;56349;51.816;-0.026;2023-01-19T07:08:17;99993.11;;;18.36;34.57
69239;BME280;56349;51.816;-0.026;2023-01-19T07:10:43;99996.96;;;18.34;34.52
69239;BME280;56349;51.816;-0.026;2023-01-19T07:13:08;99999.80;;;18.32;34.48
69239;BME280;56349;51.816;-0.026;2023-01-19T07:15:35;100000.74;;;18.28;34.42
69239;BME280;56349;51.816;-0.026;2023-01-19T07:18:00;99998.27;;;18.22;34.42
69239;BME280;56349;51.816;-0.026;2023-01-19T07:20:26;99999.62;;;18.18;34.39
69239;BME280;56349;51.816;-0.026;2023-01-19T07:22:55;100009.33;;;18.13;34.36
69239;BME280;56349;51.816;-0.026;2023-01-19T07:25:17;100006.74;;;18.10;34.33
69239;BME280;56349;51.816;-0.026;2023-01-19T07:27:44;100013.32;;;18.05;34.31
69239;BME280;56349;51.816;-0.026;2023-01-19T07:30:08;100014.93;;;18.00;34.30
69239;BME280;56349;51.816;-0.026;2023-01-19T07:32:33;100015.02;;;18.03;34.20
69239;BME280;56349;51.816;-0.026;2023-01-19T07:34:58;100015.25;;;17.96;34.19
69239;BME280;56349;51.816;-0.026;2023-01-19T07:37:23;100017.72;;;17.92;34.18
69239;BME280;56349;51.816;-0.026;2023-01-19T07:39:49;100016.94;;;17.87;34.15
69239;BME280;56349;51.816;-0.026;2023-01-19T07:42:21;100018.56;;;17.80;34.18
69239;BME280;56349;51.816;-0.026;2023-01-19T07:44:42;100021.68;;;17.74;34.17
69239;BME280;56349;51.816;-0.026;2023-01-19T07:47:07;100019.35;;;17.72;34.14
69239;BME280;56349;51.816;-0.026;2023-01-19T07:49:34;100019.91;;;17.70;34.10
69239;BME280;56349;51.816;-0.026;2023-01-19T07:51:58;100020.70;;;17.67;34.07
69239;BME280;56349;51.816;-0.026;2023-01-19T07:54:25;100020.37;;;17.63;34.06
69239;BME280;56349;51.816;-0.026;2023-01-19T07:56:49;100022.63;;;17.58;34.07
69239;BME280;56349;51.816;-0.026;2023-01-19T07:59:15;100022.71;;;18.02;34.05
69239;BME280;56349;51.816;-0.026;2023-01-19T08:01:40;100025.92;;;17.49;34.04
69239;BME280;56349;51.816;-0.026;2023-01-19T08:04:06;100023.63;;;17.48;34.00
69239;BME280;56349;51.816;-0.026;2023-01-19T08:06:33;100023.05;;;17.45;33.99
69239;BME280;56349;51.816;-0.026;2023-01-19T08:08:56;100026.82;;;17.66;34.01
69239;BME280;56349;51.816;-0.026;2023-01-19T08:11:21;100030.64;;;17.35;34.01
69239;BME280;56349;51.816;-0.026;2023-01-19T08:13:46;100036.17;;;17.27;34.02
69239;BME280;56349;51.816;-0.026;2023-01-19T08:16:11;100035.92;;;17.70;34.05
69239;BME280;56349;51.816;-0.026;2023-01-19T08:18:36;100037.21;;;17.66;34.07
69239;BME280;56349;51.816;-0.026;2023-01-19T08:21:03;100037.56;;;17.39;34.07
69239;BME280;56349;51.816;-0.026;2023-01-19T08:23:28;100039.53;;;17.35;34.12
69239;BME280;56349;51.816;-0.026;2023-01-19T08:28:27;100045.05;;;17.31;34.37
69239;BME280;56349;51.816;-0.026;2023-01-19T08:30:44;100049.23;;;17.54;34.72
69239;BME280;56349;51.816;-0.026;2023-01-19T08:33:11;100052.39;;;17.59;35.08
69239;BME280;56349;51.816;-0.026;2023-01-19T08:35:37;100056.65;;;17.22;35.41
69239;BME280;56349;51.816;-0.026;2023-01-19T08:38:01;100061.86;;;17.41;35.54
69239;BME280;56349;51.816;-0.026;2023-01-19T08:40:28;100064.08;;;17.64;35.78
69239;BME280;56349;51.816;-0.026;2023-01-19T08:42:57;100057.70;;;17.93;35.83
69239;BME280;56349;51.816;-0.026;2023-01-19T08:45:18;100057.39;;;18.05;35.85
69239;BME280;56349;51.816;-0.026;2023-01-19T08:47:44;100055.82;;;18.44;35.73
69239;BME280;56349;51.816;-0.026;2023-01-19T08:50:11;100055.28;;;18.81;35.58
69239;BME280;56349;51.816;-0.026;2023-01-19T08:52:35;100059.60;;;18.72;35.35
69239;BME280;56349;51.816;-0.026;2023-01-19T08:55:02;100061.83;;;19.33;35.10
69239;BME280;56349;51.816;-0.026;2023-01-19T08:57:27;100068.31;;;19.47;34.83
69239;BME280;56349;51.816;-0.026;2023-01-19T08:59:53;100072.38;;;19.63;34.54
69239;BME280;56349;51.816;-0.026;2023-01-19T09:02:19;100071.64;;;20.02;34.26
69239;BME280;56349;51.816;-0.026;2023-01-19T09:04:44;100074.03;;;20.13;33.94
69239;BME280;56349;51.816;-0.026;2023-01-19T09:07:10;100073.22;;;20.76;33.63
69239;BME280;56349;51.816;-0.026;2023-01-19T09:09:36;100068.40;;;20.81;33.34
69239;BME280;56349;51.816;-0.026;2023-01-19T09:12:02;100073.12;;;20.91;33.08
69239;BME280;56349;51.816;-0.026;2023-01-19T09:14:27;100075.64;;;21.20;32.80
69239;BME280;56349;51.816;-0.026;2023-01-19T09:16:53;100072.39;;;21.01;32.54
69239;BME280;56349;51.816;-0.026;2023-01-19T09:19:19;100073.53;;;21.57;32.28
69239;BME280;56349;51.816;-0.026;2023-01-19T09:21:45;100070.40;;;22.04;32.07
69239;BME280;56349;51.816;-0.026;2023-01-19T09:24:11;100068.93;;;21.76;31.85
69239;BME280;56349;51.816;-0.026;2023-01-19T09:26:37;100073.70;;;22.00;31.66
69239;BME280;56349;51.816;-0.026;2023-01-19T09:29:03;100070.81;;;22.24;31.43
69239;BME280;56349;51.816;-0.026;2023-01-19T09:31:30;100072.54;;;22.25;31.22
69239;BME280;56349;51.816;-0.026;2023-01-19T09:33:54;100073.97;;;22.66;31.02
69239;BME280;56349;51.816;-0.026;2023-01-19T09:36:21;100075.90;;;22.58;30.89
69239;BME280;56349;51.816;-0.026;2023-01-19T09:38:46;100077.62;;;22.98;30.44
69239;BME280;56349;51.816;-0.026;2023-01-19T09:41:18;100069.32;;;22.92;30.30
69239;BME280;56349;51.816;-0.026;2023-01-19T09:43:40;100067.60;;;23.04;29.79
69239;BME280;56349;51.816;-0.026;2023-01-19T09:46:09;100073.21;;;22.79;29.65
69239;BME280;56349;51.816;-0.026;2023-01-19T09:48:38;100072.81;;;23.10;29.66
69239;BME280;56349;51.816;-0.026;2023-01-19T09:50:58;100078.33;;;23.13;29.89
69239;BME280;56349;51.816;-0.026;2023-01-19T09:53:28;100082.10;;;22.95;29.96
69239;BME280;56349;51.816;-0.026;2023-01-19T09:55:46;100083.31;;;23.04;29.95
69239;BME280;56349;51.816;-0.026;2023-01-19T09:58:13;100081.36;;;23.15;29.64
69239;BME280;56349;51.816;-0.026;2023-01-19T10:00:38;100082.52;;;23.21;29.29
69239;BME280;56349;51.816;-0.026;2023-01-19T10:03:11;100083.01;;;23.24;29.01
69239;BME280;56349;51.816;-0.026;2023-01-19T10:05:33;100086.04;;;23.31;28.88
69239;BME280;56349;51.816;-0.026;2023-01-19T10:08:05;100086.88;;;23.32;28.69
69239;BME280;56349;51.816;-0.026;2023-01-19T10:10:25;100085.59;;;23.58;28.69
69239;BME280;56349;51.816;-0.026;2023-01-19T10:12:57;100089.45;;;23.30;28.54
69239;BME280;56349;51.816;-0.026;2023-01-19T10:15:20;100090.38;;;23.29;28.50
69239;BME280;56349;51.816;-0.026;2023-01-19T10:17:45;100094.88;;;22.90;28.37
69239;BME280;56349;51.816;-0.026;2023-01-19T10:20:09;100095.95;;;23.34;28.33
69239;BME280;56349;51.816;-0.026;2023-01-19T10:22:32;100097.05;;;23.34;28.28
69239;BME280;56349;51.816;-0.026;2023-01-19T10:24:59;100100.84;;;23.29;28.22
69239;BME280;56349;51.816;-0.026;2023-01-19T10:27:25;100101.34;;;22.85;28.28
69239;BME280;56349;51.816;-0.026;2023-01-19T10:29:47;100102.67;;;23.38;28.14
69239;BME280;56349;51.816;-0.026;2023-01-19T10:32:14;100097.11;;;23.25;28.03
69239;BME280;56349;51.816;-0.026;2023-01-19T10:34:39;100097.58;;;23.34;27.94
69239;BME280;56349;51.816;-0.026;2023-01-19T10:37:11;100096.98;;;23.18;27.84
69239;BME280;56349;51.816;-0.026;2023-01-19T10:39:29;100097.23;;;23.48;27.82
69239;BME280;56349;51.816;-0.026;2023-01-19T10:41:57;100096.21;;;23.31;27.74
69239;BME280;56349;51.816;-0.026;2023-01-19T10:44:24;100097.19;;;23.78;27.66
69239;BME280;56349;51.816;-0.026;2023-01-19T10:46:47;100099.28;;;23.58;27.61
69239;BME280;56349;51.816;-0.026;2023-01-19T10:51:45;100096.28;;;23.61;27.55
69239;BME280;56349;51.816;-0.026;2023-01-19T10:54:03;100096.61;;;23.62;27.51
69239;BME280;56349;51.816;-0.026;2023-01-19T10:56:30;100095.88;;;23.65;27.43
69239;BME280;56349;51.816;-0.026;2023-01-19T10:58:52;100100.08;;;23.90;27.38
69239;BME280;56349;51.816;-0.026;2023-01-19T11:01:20;100099.32;;;23.47;27.33
69239;BME280;56349;51.816;-0.026;2023-01-19T11:03:44;100101.21;;;23.51;27.27
69239;BME280;56349;51.816;-0.026;2023-01-19T11:06:19;100102.15;;;23.55;27.20
69239;BME280;56349;51.816;-0.026;2023-01-19T11:08:36;100097.37;;;23.60;27.15
69239;BME280;56349;51.816;-0.026;2023-01-19T11:11:08;100100.08;;;23.74;27.10
69239;BME280;56349;51.816;-0.026;2023-01-19T11:13:25;100102.44;;;23.84;27.03
69239;BME280;56349;51.816;-0.026;2023-01-19T11:15:54;100105.44;;;23.93;26.93
69239;BME280;56349;51.816;-0.026;2023-01-19T11:18:25;100104.60;;;24.00;26.91
69239;BME280;56349;51.816;-0.026;2023-01-19T11:20:49;100103.19;;;24.04;26.88
69239;BME280;56349;51.816;-0.026;2023-01-19T11:23:17;100101.86;;;24.08;26.79
69239;BME280;56349;51.816;-0.026;2023-01-19T11:25:38;100102.95;;;23.92;25.63
69239;BME280;56349;51.816;-0.026;2023-01-19T11:28:01;100102.81;;;23.71;25.48
69239;BME280;56349;51.816;-0.026;2023-01-19T11:30:26;100100.46;;;23.33;25.86
69239;BME280;56349;51.816;-0.026;2023-01-19T11:32:52;100098.96;;;23.52;26.29
69239;BME280;56349;51.816;-0.026;2023-01-19T11:37:44;100095.34;;;23.34;26.91
69239;BME280;56349;51.816;-0.026;2023-01-19T11:40:10;100092.04;;;23.72;27.00
69239;BME280;56349;51.816;-0.026;2023-01-19T11:42:35;100092.10;;;24.24;27.03
69239;BME280;56349;51.816;-0.026;2023-01-19T11:45:10;100088.90;;;24.05;26.81
69239;BME280;56349;51.816;-0.026;2023-01-19T11:47:28;100088.04;;;23.87;26.93
69239;BME280;56349;51.816;-0.026;2023-01-19T11:49:57;100087.53;;;23.85;27.04
69239;BME280;56349;51.816;-0.026;2023-01-19T11:52:23;100084.44;;;23.83;26.70
69239;BME280;56349;51.816;-0.026;2023-01-19T11:54:47;100079.97;;;23.79;26.83
69239;BME280;56349;51.816;-0.026;2023-01-19T11:57:12;100077.75;;;23.81;26.99
69239;BME280;56349;51.816;-0.026;2023-01-19T11:59:33;100077.20;;;24.04;27.15
69239;BME280;56349;51.816;-0.026;2023-01-19T12:02:17;100071.95;;;23.84;27.03
69239;BME280;56349;51.816;-0.026;2023-01-19T12:04:27;100069.73;;;23.61;27.13
69239;BME280;56349;51.816;-0.026;2023-01-19T12:06:56;100070.91;;;23.95;27.10
69239;BME280;56349;51.816;-0.026;2023-01-19T12:09:18;100072.84;;;24.01;27.07
69239;BME280;56349;51.816;-0.026;2023-01-19T12:11:44;100071.74;;;24.03;27.15
69239;BME280;56349;51.816;-0.026;2023-01-19T12:14:14;100068.42;;;23.81;27.14
69239;BME280;56349;51.816;-0.026;2023-01-19T12:16:33;100070.64;;;24.13;27.14
69239;BME280;56349;51.816;-0.026;2023-01-19T12:19:05;100065.19;;;23.92;27.17
69239;BME280;56349;51.816;-0.026;2023-01-19T12:21:24;100062.08;;;23.96;27.18
69239;BME280;56349;51.816;-0.026;2023-01-19T12:24:00;100063.64;;;24.02;27.17
69239;BME280;56349;51.816;-0.026;2023-01-19T12:26:24;100062.33;;;24.06;27.16
69239;BME280;56349;51.816;-0.026;2023-01-19T12:28:43;100065.85;;;24.10;27.15
69239;BME280;56349;51.816;-0.026;2023-01-19T12:31:07;100065.00;;;24.15;27.14
69239;BME280;56349;51.816;-0.026;2023-01-19T12:33:34;100068.60;;;24.45;27.09
69239;BME280;56349;51.816;-0.026;2023-01-19T12:35:58;100068.11;;;24.48;27.02
69239;BME280;56349;51.816;-0.026;2023-01-19T12:38:33;100067.04;;;24.20;26.36
69239;BME280;56349;51.816;-0.026;2023-01-19T12:40:48;100067.68;;;24.15;25.99
69239;BME280;56349;51.816;-0.026;2023-01-19T12:43:16;100061.90;;;24.11;25.82
69239;BME280;56349;51.816;-0.026;2023-01-19T12:45:39;100059.26;;;24.38;25.91